Time;durP1;ratioP1;P1;durP2;ratioP2;P2;SDS_P1;SDS_P2;PMS_P1;PMS_P2;Temp;Humidity;BMP_temperature;BMP_pressure;BME280_temperature;BME280_humidity;BME280_pressure;Samples;Min_cycle;Max_cycle;Signal;HPM_P1;HPM_P2
2023/03/13 00:00:49;;;;;;;13.75;6.88;;;;;;;;;;5065077;28;20700;-52
2023/03/13 00:03:15;;;;;;;13.55;6.53;;;;;;;;;;5064106;28;20032;-52
2023/03/13 00:05:40;;;;;;;14.88;6.82;;;;;;;;;;5064790;28;20021;-51
2023/03/13 00:08:05;;;;;;;14.32;6.40;;;;;;;;;;5065040;28;20526;-50
2023/03/13 00:10:30;;;;;;;11.80;5.85;;;;;;;;;;5065042;28;20020;-51
2023/03/13 00:12:56;;;;;;;12.52;6.05;;;;;;;;;;5064670;28;20058;-53
2023/03/13 00:15:21;;;;;;;13.38;6.20;;;;;;;;;;5095970;28;20056;-51
2023/03/13 00:17:47;;;;;;;13.27;6.03;;;;;;;;;;5064631;28;20029;-51
2023/03/13 00:20:12;;;;;;;11.25;5.65;;;;;;;;;;5078924;28;20037;-53
2023/03/13 00:22:37;;;;;;;12.35;5.63;;;;;;;;;;5065003;28;20817;-50
2023/03/13 00:25:03;;;;;;;12.10;5.78;;;;;;;;;;5064462;28;20026;-56
2023/03/13 00:27:31;;;;;;;10.07;5.65;;;;;;;;;;5079058;28;20025;-51
2023/03/13 00:29:57;;;;;;;13.43;6.28;;;;;;;;;;5064891;28;20025;-51
2023/03/13 00:32:22;;;;;;;15.02;6.78;;;;;;;;;;5064760;28;20033;-51
2023/03/13 00:34:47;;;;;;;13.85;6.90;;;;;;;;;;5064804;28;20108;-51
2023/03/13 00:37:13;;;;;;;13.10;6.95;;;;;;;;;;5064546;28;20090;-52
2023/03/13 00:39:38;;;;;;;15.27;7.00;;;;;;;;;;5064480;28;20036;-52
2023/03/13 00:42:04;;;;;;;12.32;6.13;;;;;;;;;;5064755;28;20020;-55
2023/03/13 00:44:29;;;;;;;9.82;5.47;;;;;;;;;;5064267;28;20028;-51
2023/03/13 00:46:54;;;;;;;14.23;6.03;;;;;;;;;;5064734;28;20120;-53
2023/03/13 00:49:20;;;;;;;15.20;5.57;;;;;;;;;;5064618;28;20029;-54
2023/03/13 00:51:45;;;;;;;12.95;6.18;;;;;;;;;;5064478;28;20123;-53
2023/03/13 00:54:10;;;;;;;12.75;6.65;;;;;;;;;;5064648;28;20628;-52
2023/03/13 00:56:36;;;;;;;11.38;5.80;;;;;;;;;;5064664;28;20031;-51
2023/03/13 00:59:01;;;;;;;10.93;5.38;;;;;;;;;;5078576;28;20040;-52
2023/03/13 01:01:28;;;;;;;12.90;6.13;;;;;;;;;;5063936;28;20024;-52
2023/03/13 01:03:55;;;;;;;13.30;6.07;;;;;;;;;;5064256;28;20103;-51
2023/03/13 01:06:22;;;;;;;12.40;6.97;;;;;;;;;;5064338;28;20023;-54
2023/03/13 01:08:47;;;;;;;14.80;5.57;;;;;;;;;;5064065;28;20028;-52
2023/03/13 01:11:23;;;;;;;8.25;4.60;;;;;;;;;;5063967;28;20024;-50
2023/03/13 01:13:49;;;;;;;9.38;5.30;;;;;;;;;;5065389;28;20083;-51
2023/03/13 01:16:16;;;;;;;13.68;5.07;;;;;;;;;;5067631;28;20032;-51
2023/03/13 01:18:44;;;;;;;12.20;5.80;;;;;;;;;;5067376;28;20024;-51
2023/03/13 01:21:09;;;;;;;15.50;6.63;;;;;;;;;;5067478;28;20027;-51
2023/03/13 01:23:35;;;;;;;11.07;6.25;;;;;;;;;;5067678;28;20021;-54
2023/03/13 01:26:00;;;;;;;13.38;6.07;;;;;;;;;;5067483;28;20024;-53
2023/03/13 01:28:25;;;;;;;11.07;5.63;;;;;;;;;;5067602;28;20089;-54
2023/03/13 01:30:51;;;;;;;11.38;6.10;;;;;;;;;;5067356;28;20571;-52
2023/03/13 01:33:16;;;;;;;13.88;6.70;;;;;;;;;;5067472;28;20112;-52
2023/03/13 01:35:42;;;;;;;10.65;5.65;;;;;;;;;;5067471;28;20023;-53
2023/03/13 01:38:07;;;;;;;12.85;6.20;;;;;;;;;;5067226;28;20035;-56
2023/03/13 01:40:46;;;;;;;12.60;6.35;;;;;;;;;;5067789;28;20024;-52
2023/03/13 01:43:17;;;;;;;14.35;5.90;;;;;;;;;;5066994;28;20024;-52
2023/03/13 01:46:02;;;;;;;11.77;5.30;;;;;;;;;;5104444;28;20051;-49
2023/03/13 01:48:27;;;;;;;13.50;6.40;;;;;;;;;;5105188;28;20185;-54
2023/03/13 01:50:55;;;;;;;11.15;5.80;;;;;;;;;;5104943;28;20459;-55
2023/03/13 01:53:21;;;;;;;12.13;6.30;;;;;;;;;;5104927;28;20065;-50
2023/03/13 01:55:46;;;;;;;12.95;6.10;;;;;;;;;;5104891;28;20460;-51
2023/03/13 01:58:12;;;;;;;11.32;5.90;;;;;;;;;;5104787;28;20417;-53
2023/03/13 02:00:38;;;;;;;16.20;7.32;;;;;;;;;;5104875;28;20024;-51
2023/03/13 02:03:07;;;;;;;14.23;6.70;;;;;;;;;;5105068;28;20028;-49
2023/03/13 02:05:33;;;;;;;13.18;6.90;;;;;;;;;;5104731;28;20054;-54
2023/03/13 02:08:04;;;;;;;15.60;6.30;;;;;;;;;;5104780;28;20023;-53
2023/03/13 02:10:30;;;;;;;16.50;6.95;;;;;;;;;;5104779;28;20046;-53
2023/03/13 02:12:57;;;;;;;13.88;6.60;;;;;;;;;;5104756;28;20019;-52
2023/03/13 02:15:24;;;;;;;12.48;6.80;;;;;;;;;;5104635;28;20027;-52
2023/03/13 02:17:50;;;;;;;12.93;6.82;;;;;;;;;;5067967;28;20033;-53
2023/03/13 02:20:16;;;;;;;13.15;6.97;;;;;;;;;;5066778;28;20031;-52
2023/03/13 02:23:02;;;;;;;14.43;7.15;;;;;;;;;;5066634;28;20112;-54
2023/03/13 02:25:41;;;;;;;16.25;6.53;;;;;;;;;;5065507;28;20017;-52
2023/03/13 02:28:08;;;;;;;13.75;7.07;;;;;;;;;;5066643;28;20048;-54
2023/03/13 02:30:34;;;;;;;13.48;6.82;;;;;;;;;;5066794;28;20066;-54
2023/03/13 02:33:00;;;;;;;16.92;7.07;;;;;;;;;;5066494;28;20421;-52
2023/03/13 02:35:25;;;;;;;14.73;7.40;;;;;;;;;;5066483;28;20498;-54
2023/03/13 02:37:53;;;;;;;17.38;8.32;;;;;;;;;;5066140;28;20542;-54
2023/03/13 02:40:24;;;;;;;12.85;6.78;;;;;;;;;;5066374;28;20020;-54
2023/03/13 02:42:50;;;;;;;17.10;7.88;;;;;;;;;;5066401;28;20426;-53
2023/03/13 02:45:17;;;;;;;13.05;7.43;;;;;;;;;;5065875;28;20177;-54
2023/03/13 02:47:42;;;;;;;13.85;7.13;;;;;;;;;;5066165;28;20792;-53
2023/03/13 02:50:08;;;;;;;16.00;7.40;;;;;;;;;;5066281;28;20038;-54
2023/03/13 02:52:52;;;;;;;15.45;6.28;;;;;;;;;;5066125;28;20100;-54
2023/03/13 02:55:21;;;;;;;15.25;7.20;;;;;;;;;;5066021;28;20115;-54
2023/03/13 02:57:46;;;;;;;9.68;5.05;;;;;;;;;;5064648;28;20020;-51
2023/03/13 03:00:12;;;;;;;16.48;7.03;;;;;;;;;;5065836;28;20048;-49
2023/03/13 03:02:37;;;;;;;13.60;6.63;;;;;;;;;;5065880;28;20029;-52
2023/03/13 03:05:03;;;;;;;16.20;7.22;;;;;;;;;;5065907;28;20017;-54
2023/03/13 03:07:28;;;;;;;11.77;6.53;;;;;;;;;;5065621;28;20028;-52
2023/03/13 03:09:54;;;;;;;14.35;6.78;;;;;;;;;;5066130;28;20113;-53
2023/03/13 03:12:19;;;;;;;15.52;7.03;;;;;;;;;;5065723;28;20349;-52
2023/03/13 03:14:44;;;;;;;13.75;7.25;;;;;;;;;;5065913;28;20031;-52
2023/03/13 03:17:10;;;;;;;14.75;6.80;;;;;;;;;;5065544;28;20487;-55
2023/03/13 03:19:35;;;;;;;15.10;7.25;;;;;;;;;;5065223;28;20110;-55
2023/03/13 03:22:00;;;;;;;17.48;7.05;;;;;;;;;;5065374;28;20814;-51
2023/03/13 03:24:26;;;;;;;14.50;7.22;;;;;;;;;;5065670;28;20028;-51
2023/03/13 03:26:51;;;;;;;11.82;6.80;;;;;;;;;;5065797;28;20419;-53
2023/03/13 03:29:16;;;;;;;16.67;6.88;;;;;;;;;;5063265;28;20048;-49
2023/03/13 03:31:41;;;;;;;11.45;6.28;;;;;;;;;;5065505;28;20111;-53
2023/03/13 03:34:07;;;;;;;12.68;6.82;;;;;;;;;;5065703;28;20078;-53
2023/03/13 03:36:32;;;;;;;15.25;7.40;;;;;;;;;;5065595;28;20399;-50
2023/03/13 03:38:58;;;;;;;14.70;6.40;;;;;;;;;;5065621;28;20317;-50
2023/03/13 03:41:23;;;;;;;15.18;6.85;;;;;;;;;;5065554;28;20055;-52
2023/03/13 03:43:48;;;;;;;15.27;7.15;;;;;;;;;;5065774;28;20024;-52
2023/03/13 03:46:14;;;;;;;17.25;7.07;;;;;;;;;;5065716;28;20056;-54
2023/03/13 03:48:39;;;;;;;12.65;6.95;;;;;;;;;;5065507;28;20507;-51
2023/03/13 03:51:05;;;;;;;15.00;6.43;;;;;;;;;;5064197;28;20120;-52
2023/03/13 03:53:31;;;;;;;18.60;7.40;;;;;;;;;;5065490;28;20047;-54
2023/03/13 03:55:56;;;;;;;15.43;6.97;;;;;;;;;;5063416;28;20063;-54
2023/03/13 03:58:21;;;;;;;16.25;7.28;;;;;;;;;;5065595;28;20056;-55
2023/03/13 04:00:47;;;;;;;14.60;6.82;;;;;;;;;;5065333;28;20025;-55
2023/03/13 04:03:13;;;;;;;14.90;5.85;;;;;;;;;;5065234;28;20028;-53
2023/03/13 04:05:38;;;;;;;12.77;5.97;;;;;;;;;;5096876;28;20054;-56
2023/03/13 04:08:04;;;;;;;18.35;6.72;;;;;;;;;;5065776;28;20334;-53
2023/03/13 04:10:29;;;;;;;17.98;6.85;;;;;;;;;;5065684;28;20029;-51
2023/03/13 04:12:54;;;;;;;11.05;6.00;;;;;;;;;;5065563;28;20111;-53
2023/03/13 04:15:20;;;;;;;14.50;6.93;;;;;;;;;;5065574;28;20036;-53
2023/03/13 04:17:45;;;;;;;14.32;6.72;;;;;;;;;;5065609;28;20025;-54
2023/03/13 04:20:12;;;;;;;13.90;6.75;;;;;;;;;;5063899;28;20691;-53
2023/03/13 04:22:37;;;;;;;16.63;6.45;;;;;;;;;;5065611;28;20103;-54
2023/03/13 04:25:03;;;;;;;12.32;6.28;;;;;;;;;;5065147;28;20120;-54
2023/03/13 04:27:28;;;;;;;13.32;6.57;;;;;;;;;;5065308;28;20048;-53
2023/03/13 04:29:54;;;;;;;14.73;7.35;;;;;;;;;;5065316;28;20055;-54
2023/03/13 04:32:19;;;;;;;14.73;8.05;;;;;;;;;;5065522;28;20021;-53
2023/03/13 04:34:44;;;;;;;15.05;7.43;;;;;;;;;;5065735;28;20639;-52
2023/03/13 04:37:10;;;;;;;13.95;7.07;;;;;;;;;;5068036;28;20578;-53
2023/03/13 04:39:35;;;;;;;17.17;7.28;;;;;;;;;;5067169;28;20066;-54
2023/03/13 04:42:00;;;;;;;14.02;6.50;;;;;;;;;;5066891;28;20035;-53
2023/03/13 04:44:25;;;;;;;15.02;7.40;;;;;;;;;;5066644;28;20060;-50
2023/03/13 04:46:51;;;;;;;19.13;6.97;;;;;;;;;;5066349;28;20070;-52
2023/03/13 04:49:16;;;;;;;20.20;7.65;;;;;;;;;;5084100;28;20472;-56
2023/03/13 04:51:42;;;;;;;18.20;8.57;;;;;;;;;;5071155;28;20020;-51
2023/03/13 04:54:07;;;;;;;13.85;7.35;;;;;;;;;;5086633;28;20041;-55
2023/03/13 04:56:32;;;;;;;16.48;8.13;;;;;;;;;;5072004;28;20817;-52
2023/03/13 04:58:58;;;;;;;18.27;7.03;;;;;;;;;;5072056;28;20024;-56
2023/03/13 05:01:23;;;;;;;18.83;8.38;;;;;;;;;;5071746;28;20443;-53
2023/03/13 05:03:48;;;;;;;25.52;9.93;;;;;;;;;;5073456;28;20024;-55
2023/03/13 05:06:14;;;;;;;20.20;8.70;;;;;;;;;;5073916;28;20020;-53
2023/03/13 05:08:39;;;;;;;16.30;7.53;;;;;;;;;;5071721;28;20043;-50
2023/03/13 05:11:05;;;;;;;17.92;8.07;;;;;;;;;;5073897;28;20012;-53
2023/03/13 05:13:30;;;;;;;19.20;7.93;;;;;;;;;;5073766;28;20029;-53
2023/03/13 05:15:56;;;;;;;20.45;10.35;;;;;;;;;;5072994;28;20078;-53
2023/03/13 05:18:21;;;;;;;23.35;9.43;;;;;;;;;;5073768;28;20039;-55
2023/03/13 05:20:46;;;;;;;18.48;8.13;;;;;;;;;;5073507;28;20021;-54
2023/03/13 05:23:12;;;;;;;18.55;7.68;;;;;;;;;;5073726;28;20614;-53
2023/03/13 05:25:37;;;;;;;14.60;8.48;;;;;;;;;;5068668;28;20487;-52
2023/03/13 05:28:03;;;;;;;21.73;8.38;;;;;;;;;;5066962;28;20754;-55
2023/03/13 05:30:28;;;;;;;15.07;7.30;;;;;;;;;;5099331;28;20033;-55
2023/03/13 05:32:53;;;;;;;15.02;7.40;;;;;;;;;;5068254;28;20445;-53
2023/03/13 05:35:19;;;;;;;19.48;8.68;;;;;;;;;;5068117;28;20020;-56
2023/03/13 05:37:45;;;;;;;19.13;9.07;;;;;;;;;;5068410;28;20039;-55
2023/03/13 05:40:10;;;;;;;18.23;8.57;;;;;;;;;;5068414;28;20111;-53
2023/03/13 05:42:36;;;;;;;18.55;8.38;;;;;;;;;;5070198;28;20468;-55
2023/03/13 05:45:01;;;;;;;18.63;7.93;;;;;;;;;;5084644;28;20131;-55
2023/03/13 05:47:26;;;;;;;21.33;8.40;;;;;;;;;;5069311;28;20024;-49
2023/03/13 05:49:52;;;;;;;15.40;7.88;;;;;;;;;;5069146;28;20108;-53
2023/03/13 05:52:17;;;;;;;16.95;8.02;;;;;;;;;;5084272;28;20032;-53
2023/03/13 05:54:42;;;;;;;16.15;8.43;;;;;;;;;;5070813;28;20742;-54
2023/03/13 05:57:07;;;;;;;20.52;8.52;;;;;;;;;;5070938;28;20020;-52
2023/03/13 05:59:33;;;;;;;21.55;8.27;;;;;;;;;;5069992;28;20032;-54
2023/03/13 06:01:58;;;;;;;16.58;8.57;;;;;;;;;;5070071;28;20065;-54
2023/03/13 06:04:23;;;;;;;22.02;8.77;;;;;;;;;;5071642;28;20024;-50
2023/03/13 06:06:49;;;;;;;17.33;8.77;;;;;;;;;;5072807;28;20363;-53
2023/03/13 06:09:14;;;;;;;17.20;7.80;;;;;;;;;;5073615;28;20082;-52
2023/03/13 06:11:40;;;;;;;14.05;7.82;;;;;;;;;;5070976;28;20048;-51
2023/03/13 06:14:05;;;;;;;13.57;6.88;;;;;;;;;;5072367;28;20094;-52
2023/03/13 06:16:31;;;;;;;16.17;6.85;;;;;;;;;;5072143;28;20021;-55
2023/03/13 06:18:56;;;;;;;14.57;6.68;;;;;;;;;;5071276;28;20430;-53
2023/03/13 06:21:22;;;;;;;13.25;6.93;;;;;;;;;;5073024;28;20826;-53
2023/03/13 06:23:47;;;;;;;16.27;6.85;;;;;;;;;;5072298;28;20057;-55
2023/03/13 06:26:12;;;;;;;15.82;6.93;;;;;;;;;;5070480;28;20029;-51
2023/03/13 06:28:37;;;;;;;18.48;7.85;;;;;;;;;;5068186;28;20024;-55
2023/03/13 06:31:04;;;;;;;17.60;7.25;;;;;;;;;;5067669;28;20495;-54
2023/03/13 06:33:29;;;;;;;18.38;7.60;;;;;;;;;;5067235;28;20028;-53
2023/03/13 06:35:55;;;;;;;12.93;6.50;;;;;;;;;;5067186;28;20478;-53
2023/03/13 06:38:20;;;;;;;16.83;7.90;;;;;;;;;;5065592;28;20028;-52
2023/03/13 06:40:45;;;;;;;13.88;6.55;;;;;;;;;;5046190;28;20021;-53
2023/03/13 06:43:11;;;;;;;12.77;7.47;;;;;;;;;;5056514;28;20361;-56
2023/03/13 06:45:36;;;;;;;24.77;7.82;;;;;;;;;;5054421;28;20136;-53
2023/03/13 06:48:02;;;;;;;14.73;6.72;;;;;;;;;;5060124;28;20359;-51
2023/03/13 06:50:27;;;;;;;20.45;6.78;;;;;;;;;;5055619;28;20078;-51
2023/03/13 06:52:53;;;;;;;15.90;6.28;;;;;;;;;;5068432;28;20024;-52
2023/03/13 06:55:18;;;;;;;12.65;6.90;;;;;;;;;;5068562;28;20017;-54
2023/03/13 06:57:48;;;;;;;14.52;6.78;;;;;;;;;;5059862;28;20078;-52
2023/03/13 07:00:13;;;;;;;13.35;7.00;;;;;;;;;;5060227;28;20032;-53
2023/03/13 07:02:38;;;;;;;10.70;5.68;;;;;;;;;;5068991;28;20042;-53
2023/03/13 07:05:04;;;;;;;14.50;5.78;;;;;;;;;;5054355;28;20029;-55
2023/03/13 07:07:31;;;;;;;13.02;5.97;;;;;;;;;;5059355;28;20056;-52
2023/03/13 07:09:57;;;;;;;12.73;6.40;;;;;;;;;;5062850;28;20575;-53
2023/03/13 07:12:22;;;;;;;14.25;5.82;;;;;;;;;;5066656;28;20092;-54
2023/03/13 07:14:47;;;;;;;13.68;6.03;;;;;;;;;;5067048;28;20045;-53
2023/03/13 07:17:13;;;;;;;11.98;6.32;;;;;;;;;;5067319;28;20536;-54
2023/03/13 07:19:38;;;;;;;10.15;5.90;;;;;;;;;;5064532;28;20758;-49
2023/03/13 07:22:03;;;;;;;10.30;5.78;;;;;;;;;;5065184;28;20021;-53
2023/03/13 07:24:28;;;;;;;9.30;5.32;;;;;;;;;;5055701;28;20408;-53
2023/03/13 07:26:54;;;;;;;11.45;5.25;;;;;;;;;;5060096;28;20426;-49
2023/03/13 07:29:19;;;;;;;10.05;4.97;;;;;;;;;;5055440;28;20115;-53
2023/03/13 07:31:44;;;;;;;9.65;4.93;;;;;;;;;;5051543;28;20505;-50
2023/03/13 07:34:10;;;;;;;8.48;4.45;;;;;;;;;;5061228;28;20027;-51
2023/03/13 07:36:35;;;;;;;13.25;4.95;;;;;;;;;;5056831;28;20024;-51
2023/03/13 07:39:00;;;;;;;11.00;4.55;;;;;;;;;;5060083;28;20040;-52
2023/03/13 07:41:26;;;;;;;9.48;4.38;;;;;;;;;;5059244;28;20021;-50
2023/03/13 07:43:51;;;;;;;8.13;4.57;;;;;;;;;;5053614;28;20036;-49
2023/03/13 07:46:17;;;;;;;10.50;4.40;;;;;;;;;;5058824;28;20060;-52
2023/03/13 07:48:43;;;;;;;8.38;4.88;;;;;;;;;;5057498;28;20077;-50
2023/03/13 07:51:11;;;;;;;17.13;7.03;;;;;;;;;;5057888;28;20051;-53
2023/03/13 07:53:37;;;;;;;7.53;4.03;;;;;;;;;;5052849;28;20086;-52
2023/03/13 07:56:03;;;;;;;10.15;4.40;;;;;;;;;;5046993;28;20024;-49
2023/03/13 07:58:30;;;;;;;8.48;3.92;;;;;;;;;;5058728;28;20119;-49
2023/03/13 08:00:56;;;;;;;10.18;4.57;;;;;;;;;;5057673;28;20036;-54
2023/03/13 08:03:22;;;;;;;7.15;4.10;;;;;;;;;;5061362;28;20028;-52
2023/03/13 08:05:47;;;;;;;11.23;4.55;;;;;;;;;;5062117;28;20031;-49
2023/03/13 08:08:13;;;;;;;13.70;4.68;;;;;;;;;;5062307;28;20028;-51
2023/03/13 08:10:38;;;;;;;11.15;5.18;;;;;;;;;;5060924;28;20043;-54
2023/03/13 08:13:03;;;;;;;11.20;4.43;;;;;;;;;;5057767;28;20020;-50
2023/03/13 08:15:29;;;;;;;10.48;4.95;;;;;;;;;;5062698;28;20731;-50
2023/03/13 08:17:55;;;;;;;11.60;4.60;;;;;;;;;;5048286;28;20029;-54
2023/03/13 08:20:20;;;;;;;10.02;4.40;;;;;;;;;;5047704;28;20432;-52
2023/03/13 08:22:46;;;;;;;9.60;4.25;;;;;;;;;;5054320;28;20025;-52
2023/03/13 08:25:12;;;;;;;7.47;4.47;;;;;;;;;;5055053;28;20037;-52
2023/03/13 08:27:37;;;;;;;6.88;4.13;;;;;;;;;;5049062;28;20025;-49
2023/03/13 08:30:03;;;;;;;10.05;4.18;;;;;;;;;;5054042;28;20510;-49
2023/03/13 08:32:28;;;;;;;7.78;4.03;;;;;;;;;;5057916;28;20029;-55
2023/03/13 08:34:53;;;;;;;10.35;4.32;;;;;;;;;;5060669;28;20654;-50
2023/03/13 08:37:19;;;;;;;9.50;4.18;;;;;;;;;;5062716;28;20029;-56
2023/03/13 08:39:44;;;;;;;10.02;4.75;;;;;;;;;;5059456;28;20066;-51
2023/03/13 08:42:10;;;;;;;12.18;4.38;;;;;;;;;;5040136;28;20491;-54
2023/03/13 08:44:36;;;;;;;20.10;4.75;;;;;;;;;;5057795;28;20079;-55
2023/03/13 08:47:01;;;;;;;8.43;3.65;;;;;;;;;;5057848;28;20033;-52
2023/03/13 08:49:26;;;;;;;10.40;4.00;;;;;;;;;;5061670;28;20033;-53
2023/03/13 08:51:51;;;;;;;6.93;3.78;;;;;;;;;;5049903;28;21028;-53
2023/03/13 08:54:17;;;;;;;6.10;3.97;;;;;;;;;;5059938;28;20025;-54
2023/03/13 08:56:42;;;;;;;16.98;5.03;;;;;;;;;;5057079;28;20832;-52
2023/03/13 08:59:09;;;;;;;8.95;4.15;;;;;;;;;;5059001;28;20024;-54
2023/03/13 09:01:35;;;;;;;7.28;4.55;;;;;;;;;;5065664;28;20029;-52
2023/03/13 09:04:00;;;;;;;6.45;3.80;;;;;;;;;;5060922;28;20025;-52
2023/03/13 09:06:25;;;;;;;6.82;4.00;;;;;;;;;;5060419;28;20460;-50
2023/03/13 09:08:51;;;;;;;6.15;3.72;;;;;;;;;;5057773;28;20028;-50
2023/03/13 09:11:17;;;;;;;6.65;3.88;;;;;;;;;;5060955;28;20036;-50
2023/03/13 09:13:44;;;;;;;10.32;3.72;;;;;;;;;;5057399;28;20024;-52
2023/03/13 09:16:13;;;;;;;6.30;3.80;;;;;;;;;;5054900;28;20039;-56
2023/03/13 09:18:39;;;;;;;8.95;4.22;;;;;;;;;;5060801;28;20025;-55
2023/03/13 09:21:06;;;;;;;8.07;3.97;;;;;;;;;;5053324;28;20429;-52
2023/03/13 09:23:31;;;;;;;21.90;4.25;;;;;;;;;;5057946;28;20020;-50
2023/03/13 09:25:56;;;;;;;7.88;4.20;;;;;;;;;;5061492;28;20077;-54
2023/03/13 09:28:23;;;;;;;17.02;4.70;;;;;;;;;;5061391;28;20036;-52
2023/03/13 09:30:48;;;;;;;11.07;4.10;;;;;;;;;;5052366;28;20031;-53
2023/03/13 09:33:14;;;;;;;89.72;47.72;;;;;;;;;;5061813;28;20024;-53
2023/03/13 09:35:39;;;;;;;83.70;27.83;;;;;;;;;;5054921;28;20032;-50
2023/03/13 09:38:05;;;;;;;17.65;5.03;;;;;;;;;;5061676;28;21678;-52
2023/03/13 09:40:36;;;;;;;12.35;3.70;;;;;;;;;;5062691;28;20108;-51
2023/03/13 09:43:01;;;;;;;56.78;19.80;;;;;;;;;;5071582;28;20836;-55
2023/03/13 09:45:31;;;;;;;15.27;4.55;;;;;;;;;;5071632;28;20056;-55
2023/03/13 09:48:16;;;;;;;56.10;23.33;;;;;;;;;;5061396;28;20052;-49
2023/03/13 09:50:45;;;;;;;13.93;5.45;;;;;;;;;;5042102;28;20033;-53
2023/03/13 09:53:13;;;;;;;8.32;3.05;;;;;;;;;;5039174;28;20036;-52
2023/03/13 09:55:40;;;;;;;6.72;2.85;;;;;;;;;;5040375;28;20519;-50
2023/03/13 09:58:05;;;;;;;10.80;3.38;;;;;;;;;;5045261;28;20148;-52
2023/03/13 10:00:35;;;;;;;10.38;3.10;;;;;;;;;;5040178;28;20120;-51
2023/03/13 10:03:06;;;;;;;6.30;2.53;;;;;;;;;;5041347;28;20079;-52
2023/03/13 10:05:32;;;;;;;4.57;2.58;;;;;;;;;;5044083;28;20037;-50
2023/03/13 10:08:18;;;;;;;5.40;2.72;;;;;;;;;;5034701;28;20057;-53
2023/03/13 10:10:49;;;;;;;7.25;3.00;;;;;;;;;;5044102;28;20053;-52
2023/03/13 10:13:18;;;;;;;5.32;2.97;;;;;;;;;;5043877;28;20487;-52
2023/03/13 10:15:46;;;;;;;3.80;2.40;;;;;;;;;;5043902;28;20460;-49
2023/03/13 10:18:21;;;;;;;4.50;2.80;;;;;;;;;;5043841;28;20037;-54
2023/03/13 10:20:48;;;;;;;6.10;3.08;;;;;;;;;;5033103;28;20041;-49
2023/03/13 10:23:24;;;;;;;10.60;2.80;;;;;;;;;;5024064;28;20018;-53
2023/03/13 10:25:49;;;;;;;16.67;2.38;;;;;;;;;;5028331;28;20147;-49
2023/03/13 10:28:16;;;;;;;5.15;2.65;;;;;;;;;;5053058;28;20123;-51
2023/03/13 10:30:51;;;;;;;7.00;3.00;;;;;;;;;;5064484;28;20032;-52
2023/03/13 10:33:21;;;;;;;7.63;3.10;;;;;;;;;;5065452;28;20616;-50
2023/03/13 10:35:57;;;;;;;5.03;2.90;;;;;;;;;;5052115;28;20024;-49
2023/03/13 10:38:23;;;;;;;6.22;3.58;;;;;;;;;;5059198;28;20392;-47
2023/03/13 10:40:58;;;;;;;4.00;2.40;;;;;;;;;;5060972;28;20035;-51
2023/03/13 10:43:24;;;;;;;6.18;2.88;;;;;;;;;;5055893;28;20028;-49
2023/03/13 10:45:50;;;;;;;3.90;2.78;;;;;;;;;;5058320;28;20157;-52
2023/03/13 10:48:20;;;;;;;4.82;2.60;;;;;;;;;;5057177;28;20116;-53
2023/03/13 10:50:47;;;;;;;5.38;2.50;;;;;;;;;;5063175;28;20472;-49
2023/03/13 10:53:21;;;;;;;9.35;2.85;;;;;;;;;;5072272;28;20043;-48
2023/03/13 10:55:47;;;;;;;5.90;2.78;;;;;;;;;;5060545;28;20033;-51
2023/03/13 10:58:25;;;;;;;13.35;3.28;;;;;;;;;;5062170;28;20066;-52
2023/03/13 11:00:51;;;;;;;7.80;2.88;;;;;;;;;;5056796;28;20041;-49
2023/03/13 11:03:24;;;;;;;5.97;3.10;;;;;;;;;;5057611;28;20445;-48
2023/03/13 11:05:56;;;;;;;3.70;2.50;;;;;;;;;;5057081;28;20055;-53
2023/03/13 11:08:26;;;;;;;6.95;2.78;;;;;;;;;;5048040;28;20036;-53
2023/03/13 11:10:51;;;;;;;;;;;;;;;;;;5054283;28;20387;-49
2023/03/13 11:13:26;;;;;;;9.20;3.13;;;;;;;;;;5059768;28;19908;-49
2023/03/13 11:15:56;;;;;;;6.95;3.05;;;;;;;;;;5057469;28;20056;-50
2023/03/13 11:18:30;;;;;;;7.93;2.45;;;;;;;;;;5059515;28;20376;-52
2023/03/13 11:20:56;;;;;;;6.28;2.65;;;;;;;;;;5080376;28;20086;-47
2023/03/13 11:23:26;;;;;;;7.45;2.40;;;;;;;;;;5077939;28;20056;-48
2023/03/13 11:25:51;;;;;;;6.20;2.47;;;;;;;;;;5084336;28;20399;-52
2023/03/13 11:28:17;;;;;;;5.73;2.83;;;;;;;;;;5082020;28;20020;-48
2023/03/13 11:30:48;;;;;;;10.13;3.33;;;;;;;;;;5076961;28;20276;-48
2023/03/13 11:33:19;;;;;;;5.40;2.72;;;;;;;;;;5074242;28;20021;-49
2023/03/13 11:35:46;;;;;;;6.88;3.60;;;;;;;;;;5079848;28;20040;-49
2023/03/13 11:38:31;;;;;;;5.63;3.20;;;;;;;;;;5077802;28;20043;-52
2023/03/13 11:41:08;;;;;;;5.45;3.13;;;;;;;;;;5057217;28;20079;-51
2023/03/13 11:44:00;;;;;;;9.20;3.28;;;;;;;;;;5046087;28;20040;-52
2023/03/13 11:46:28;;;;;;;4.13;2.42;;;;;;;;;;5019525;28;20044;-50
2023/03/13 11:48:53;;;;;;;7.65;3.47;;;;;;;;;;5013490;28;20080;-53
2023/03/13 11:51:19;;;;;;;11.57;3.17;;;;;;;;;;5010772;28;20520;-53
2023/03/13 11:53:59;;;;;;;7.40;3.85;;;;;;;;;;5001555;28;20109;-50
2023/03/13 11:56:27;;;;;;;5.10;3.33;;;;;;;;;;4998486;28;20030;-51
2023/03/13 11:59:04;;;;;;;7.70;3.38;;;;;;;;;;4984592;28;20030;-51
2023/03/13 12:01:33;;;;;;;9.02;3.50;;;;;;;;;;4997521;28;20034;-52
2023/03/13 12:04:02;;;;;;;15.00;4.55;;;;;;;;;;4998511;28;20065;-50
2023/03/13 12:06:28;;;;;;;5.45;3.10;;;;;;;;;;4997269;28;20025;-50
2023/03/13 12:08:59;;;;;;;8.02;3.85;;;;;;;;;;5002206;28;20033;-50
2023/03/13 12:11:30;;;;;;;5.75;3.28;;;;;;;;;;5001146;28;20029;-51
2023/03/13 12:13:58;;;;;;;6.28;3.85;;;;;;;;;;5002226;28;20381;-51
2023/03/13 12:16:27;;;;;;;16.60;3.75;;;;;;;;;;5001142;28;20049;-51
2023/03/13 12:18:53;;;;;;;9.48;3.67;;;;;;;;;;5034522;28;20036;-51
2023/03/13 12:21:39;;;;;;;7.25;3.15;;;;;;;;;;5042257;28;20512;-50
2023/03/13 12:24:17;;;;;;;23.52;4.28;;;;;;;;;;5018214;28;20505;-49
2023/03/13 12:26:46;;;;;;;10.90;3.67;;;;;;;;;;5022071;28;20073;-53
2023/03/13 12:29:15;;;;;;;9.82;3.22;;;;;;;;;;5021326;28;20747;-49
2023/03/13 12:31:47;;;;;;;7.10;3.38;;;;;;;;;;5020465;28;20155;-50
2023/03/13 12:34:18;;;;;;;8.77;2.90;;;;;;;;;;5021543;28;20030;-49
2023/03/13 12:37:00;;;;;;;6.10;2.72;;;;;;;;;;5019468;28;20022;-51
2023/03/13 12:39:46;;;;;;;4.05;2.33;;;;;;;;;;5002278;28;20053;-50
2023/03/13 12:42:11;;;;;;;7.82;3.00;;;;;;;;;;5015805;28;20035;-50
2023/03/13 12:44:38;;;;;;;5.38;3.05;;;;;;;;;;5020702;28;20055;-48
2023/03/13 12:47:23;;;;;;;9.98;3.00;;;;;;;;;;5001106;28;20034;-48
2023/03/13 12:49:58;;;;;;;7.88;3.65;;;;;;;;;;5009717;28;20125;-53
2023/03/13 12:52:26;;;;;;;4.88;2.92;;;;;;;;;;5013899;28;20462;-50
2023/03/13 12:55:01;;;;;;;6.70;3.72;;;;;;;;;;5014746;28;20033;-52
2023/03/13 12:57:26;;;;;;;4.70;2.55;;;;;;;;;;5006857;28;20396;-50
2023/03/13 12:59:53;;;;;;;8.65;2.50;;;;;;;;;;5004515;28;20041;-50
2023/03/13 13:02:20;;;;;;;6.07;2.55;;;;;;;;;;5051585;28;20094;-51
2023/03/13 13:04:46;;;;;;;22.10;3.65;;;;;;;;;;5060025;28;20631;-51
2023/03/13 13:07:30;;;;;;;3.65;2.45;;;;;;;;;;5061144;28;20024;-52
2023/03/13 13:09:58;;;;;;;7.55;3.50;;;;;;;;;;5063597;28;20025;-51
2023/03/13 13:12:24;;;;;;;4.18;2.58;;;;;;;;;;5047826;28;20036;-50
2023/03/13 13:14:49;;;;;;;8.23;3.08;;;;;;;;;;5051142;28;20020;-50
2023/03/13 13:17:20;;;;;;;4.68;2.35;;;;;;;;;;5063482;28;20569;-47
2023/03/13 13:19:46;;;;;;;3.83;2.38;;;;;;;;;;5058873;28;20028;-48
2023/03/13 13:22:30;;;;;;;6.68;2.45;;;;;;;;;;5061132;28;20028;-50
2023/03/13 13:24:56;;;;;;;4.35;2.58;;;;;;;;;;5056158;28;20021;-50
2023/03/13 13:27:27;;;;;;;4.20;2.40;;;;;;;;;;5062729;28;20013;-53
2023/03/13 13:29:53;;;;;;;5.70;3.03;;;;;;;;;;5062123;28;20027;-53
2023/03/13 13:32:27;;;;;;;6.45;2.38;;;;;;;;;;5065037;28;20244;-51
2023/03/13 13:34:53;;;;;;;7.05;3.00;;;;;;;;;;5047086;28;20021;-49
2023/03/13 13:37:21;;;;;;;8.82;2.97;;;;;;;;;;5047027;28;20147;-52
2023/03/13 13:39:49;;;;;;;6.93;3.22;;;;;;;;;;5067573;28;20028;-50
2023/03/13 13:42:32;;;;;;;5.70;2.72;;;;;;;;;;5065044;28;20433;-51
2023/03/13 13:44:58;;;;;;;10.43;2.60;;;;;;;;;;5060133;28;20183;-52
2023/03/13 13:47:25;;;;;;;13.18;3.47;;;;;;;;;;5049617;28;20118;-48
2023/03/13 13:49:53;;;;;;;12.02;3.40;;;;;;;;;;5058811;28;20407;-50
2023/03/13 13:52:28;;;;;;;10.75;3.20;;;;;;;;;;5066738;28;20068;-51
2023/03/13 13:54:55;;;;;;;9.82;3.10;;;;;;;;;;5066462;28;20033;-51
2023/03/13 13:57:22;;;;;;;14.20;3.90;;;;;;;;;;5066767;28;20020;-47
2023/03/13 13:59:53;;;;;;;7.43;2.70;;;;;;;;;;5054689;28;20452;-50
2023/03/13 14:02:20;;;;;;;12.55;2.90;;;;;;;;;;5046920;28;20167;-50
2023/03/13 14:04:45;;;;;;;4.43;2.95;;;;;;;;;;5056079;28;20154;-48
2023/03/13 14:07:14;;;;;;;8.45;3.20;;;;;;;;;;5060904;28;20107;-48
2023/03/13 14:09:39;;;;;;;4.93;2.97;;;;;;;;;;5059601;28;20771;-48
2023/03/13 14:12:23;;;;;;;9.80;3.05;;;;;;;;;;5066324;28;20053;-53
2023/03/13 14:15:04;;;;;;;9.18;2.78;;;;;;;;;;5065443;28;20029;-53
2023/03/13 14:17:29;;;;;;;5.57;2.65;;;;;;;;;;5063501;28;20413;-50
2023/03/13 14:19:55;;;;;;;6.43;3.40;;;;;;;;;;5051731;28;20028;-51
2023/03/13 14:22:20;;;;;;;9.02;3.10;;;;;;;;;;5045403;28;20081;-51
2023/03/13 14:24:55;;;;;;;5.82;3.42;;;;;;;;;;5059844;28;20025;-54
2023/03/13 14:27:21;;;;;;;7.45;3.75;;;;;;;;;;5055463;28;20021;-55
2023/03/13 14:29:59;;;;;;;7.20;4.03;;;;;;;;;;5062153;28;20109;-52
2023/03/13 14:32:24;;;;;;;5.88;3.55;;;;;;;;;;5064954;28;20583;-54
2023/03/13 14:34:50;;;;;;;8.00;3.30;;;;;;;;;;5060858;28;20036;-50
2023/03/13 14:37:35;;;;;;;6.13;3.38;;;;;;;;;;5066843;28;20407;-52